sensor_id;sensor_type;location;lat;lon;timestamp;P1;durP1;ratioP1;P2;durP2;ratioP2
17133;SDS011;8682;52.120;5.252;2022-10-29T00:00:16;134.47;;;104.03;;
17133;SDS011;8682;52.120;5.252;2022-10-29T00:02:59;131.30;;;110.67;;
17133;SDS011;8682;52.120;5.252;2022-10-29T00:05:31;149.83;;;119.37;;
17133;SDS011;8682;52.120;5.252;2022-10-29T00:08:16;152.03;;;123.83;;
17133;SDS011;8682;52.120;5.252;2022-10-29T00:11:08;142.80;;;115.87;;
17133;SDS011;8682;52.120;5.252;2022-10-29T00:13:52;147.73;;;113.87;;
17133;SDS011;8682;52.120;5.252;2022-10-29T00:16:51;120.10;;;106.67;;
17133;SDS011;8682;52.120;5.252;2022-10-29T00:19:34;132.37;;;104.83;;
17133;SDS011;8682;52.120;5.252;2022-10-29T00:22:15;124.40;;;103.93;;
17133;SDS011;8682;52.120;5.252;2022-10-29T00:28:06;130.13;;;105.53;;
17133;SDS011;8682;52.120;5.252;2022-10-29T00:31:41;137.40;;;111.67;;
17133;SDS011;8682;52.120;5.252;2022-10-29T01:02:35;128.33;;;102.07;;
17133;SDS011;8682;52.120;5.252;2022-10-29T01:08:08;146.13;;;102.87;;
17133;SDS011;8682;52.120;5.252;2022-10-29T01:11:00;146.50;;;112.30;;
17133;SDS011;8682;52.120;5.252;2022-10-29T01:46:33;158.83;;;115.63;;
17133;SDS011;8682;52.120;5.252;2022-10-29T01:49:13;128.90;;;102.37;;
17133;SDS011;8682;52.120;5.252;2022-10-29T01:51:54;129.70;;;116.37;;
17133;SDS011;8682;52.120;5.252;2022-10-29T01:54:30;150.83;;;121.37;;
17133;SDS011;8682;52.120;5.252;2022-10-29T01:57:22;141.17;;;117.17;;
17133;SDS011;8682;52.120;5.252;2022-10-29T01:59:59;158.40;;;127.07;;
17133;SDS011;8682;52.120;5.252;2022-10-29T02:08:38;117.60;;;101.73;;
17133;SDS011;8682;52.120;5.252;2022-10-29T02:11:22;164.40;;;125.40;;
17133;SDS011;8682;52.120;5.252;2022-10-29T02:14:06;170.57;;;118.27;;
17133;SDS011;8682;52.120;5.252;2022-10-29T02:16:43;143.73;;;110.33;;
17133;SDS011;8682;52.120;5.252;2022-10-29T02:19:17;135.77;;;102.80;;
17133;SDS011;8682;52.120;5.252;2022-10-29T02:21:54;123.17;;;103.70;;
17133;SDS011;8682;52.120;5.252;2022-10-29T02:39:48;186.57;;;120.30;;
17133;SDS011;8682;52.120;5.252;2022-10-29T02:42:18;124.67;;;110.33;;
17133;SDS011;8682;52.120;5.252;2022-10-29T02:44:53;141.80;;;100.67;;
17133;SDS011;8682;52.120;5.252;2022-10-29T02:47:25;152.87;;;118.40;;
17133;SDS011;8682;52.120;5.252;2022-10-29T02:50:02;134.20;;;112.97;;
17133;SDS011;8682;52.120;5.252;2022-10-29T02:52:38;154.40;;;110.23;;
17133;SDS011;8682;52.120;5.252;2022-10-29T02:58:10;128.73;;;104.27;;
17133;SDS011;8682;52.120;5.252;2022-10-29T03:01:01;146.93;;;112.80;;
17133;SDS011;8682;52.120;5.252;2022-10-29T03:03:35;138.47;;;107.13;;
17133;SDS011;8682;52.120;5.252;2022-10-29T03:06:05;155.80;;;118.87;;
17133;SDS011;8682;52.120;5.252;2022-10-29T03:08:47;125.40;;;99.00;;
17133;SDS011;8682;52.120;5.252;2022-10-29T03:11:24;127.90;;;100.83;;
17133;SDS011;8682;52.120;5.252;2022-10-29T03:14:20;124.80;;;97.27;;
17133;SDS011;8682;52.120;5.252;2022-10-29T03:17:21;136.77;;;104.80;;
17133;SDS011;8682;52.120;5.252;2022-10-29T03:20:02;118.90;;;106.47;;
17133;SDS011;8682;52.120;5.252;2022-10-29T03:22:55;133.00;;;105.03;;
17133;SDS011;8682;52.120;5.252;2022-10-29T03:25:42;146.53;;;112.73;;
17133;SDS011;8682;52.120;5.252;2022-10-29T03:28:19;127.53;;;100.40;;
17133;SDS011;8682;52.120;5.252;2022-10-29T03:31:09;154.50;;;107.50;;
17133;SDS011;8682;52.120;5.252;2022-10-29T03:34:10;131.83;;;108.53;;
17133;SDS011;8682;52.120;5.252;2022-10-29T03:36:56;153.03;;;112.80;;
17133;SDS011;8682;52.120;5.252;2022-10-29T03:39:46;129.33;;;106.87;;
17133;SDS011;8682;52.120;5.252;2022-10-29T03:42:30;152.73;;;112.43;;
17133;SDS011;8682;52.120;5.252;2022-10-29T03:45:11;153.17;;;116.70;;
17133;SDS011;8682;52.120;5.252;2022-10-29T03:47:49;131.37;;;108.20;;
17133;SDS011;8682;52.120;5.252;2022-10-29T03:50:19;125.50;;;112.10;;
17133;SDS011;8682;52.120;5.252;2022-10-29T03:53:10;145.30;;;121.80;;
17133;SDS011;8682;52.120;5.252;2022-10-29T03:55:50;134.73;;;100.10;;
17133;SDS011;8682;52.120;5.252;2022-10-29T03:58:46;132.27;;;118.27;;
17133;SDS011;8682;52.120;5.252;2022-10-29T04:01:27;126.17;;;98.77;;
17133;SDS011;8682;52.120;5.252;2022-10-29T04:03:57;154.63;;;111.60;;
17133;SDS011;8682;52.120;5.252;2022-10-29T04:06:29;132.67;;;107.50;;
17133;SDS011;8682;52.120;5.252;2022-10-29T04:09:00;126.83;;;112.27;;
17133;SDS011;8682;52.120;5.252;2022-10-29T04:11:29;130.93;;;103.27;;
17133;SDS011;8682;52.120;5.252;2022-10-29T04:13:59;114.53;;;100.27;;
17133;SDS011;8682;52.120;5.252;2022-10-29T04:16:31;137.83;;;101.47;;
17133;SDS011;8682;52.120;5.252;2022-10-29T04:19:35;130.97;;;105.17;;
17133;SDS011;8682;52.120;5.252;2022-10-29T04:22:22;134.27;;;111.63;;
17133;SDS011;8682;52.120;5.252;2022-10-29T04:25:12;122.57;;;102.13;;
17133;SDS011;8682;52.120;5.252;2022-10-29T04:28:07;123.20;;;100.20;;
17133;SDS011;8682;52.120;5.252;2022-10-29T04:30:49;123.13;;;100.93;;
17133;SDS011;8682;52.120;5.252;2022-10-29T04:33:39;124.00;;;102.43;;
17133;SDS011;8682;52.120;5.252;2022-10-29T04:39:34;133.07;;;105.37;;
17133;SDS011;8682;52.120;5.252;2022-10-29T04:42:23;135.73;;;108.23;;
17133;SDS011;8682;52.120;5.252;2022-10-29T04:45:23;126.67;;;104.70;;
17133;SDS011;8682;52.120;5.252;2022-10-29T04:48:14;128.53;;;110.23;;
17133;SDS011;8682;52.120;5.252;2022-10-29T04:51:38;145.33;;;105.70;;
17133;SDS011;8682;52.120;5.252;2022-10-29T05:06:59;128.27;;;106.77;;
17133;SDS011;8682;52.120;5.252;2022-10-29T05:12:53;144.87;;;114.20;;
17133;SDS011;8682;52.120;5.252;2022-10-29T05:15:48;144.63;;;110.67;;
17133;SDS011;8682;52.120;5.252;2022-10-29T05:21:53;149.63;;;112.23;;
17133;SDS011;8682;52.120;5.252;2022-10-29T05:30:59;132.20;;;106.73;;
17133;SDS011;8682;52.120;5.252;2022-10-29T05:33:31;123.80;;;105.83;;
17133;SDS011;8682;52.120;5.252;2022-10-29T05:36:13;130.97;;;107.13;;
17133;SDS011;8682;52.120;5.252;2022-10-29T05:38:46;130.83;;;107.27;;
17133;SDS011;8682;52.120;5.252;2022-10-29T05:41:27;125.43;;;102.07;;
17133;SDS011;8682;52.120;5.252;2022-10-29T05:44:09;118.53;;;100.27;;
17133;SDS011;8682;52.120;5.252;2022-10-29T05:46:45;113.80;;;99.27;;
17133;SDS011;8682;52.120;5.252;2022-10-29T05:49:15;118.20;;;105.47;;
17133;SDS011;8682;52.120;5.252;2022-10-29T05:52:17;129.37;;;110.67;;
17133;SDS011;8682;52.120;5.252;2022-10-29T05:58:13;134.27;;;105.10;;
17133;SDS011;8682;52.120;5.252;2022-10-29T06:00:54;122.90;;;102.83;;
17133;SDS011;8682;52.120;5.252;2022-10-29T06:07:10;122.80;;;107.63;;
17133;SDS011;8682;52.120;5.252;2022-10-29T06:09:45;122.43;;;103.87;;
17133;SDS011;8682;52.120;5.252;2022-10-29T06:12:14;133.23;;;107.17;;
17133;SDS011;8682;52.120;5.252;2022-10-29T06:20:41;141.37;;;105.83;;
17133;SDS011;8682;52.120;5.252;2022-10-29T06:23:22;171.17;;;118.23;;
17133;SDS011;8682;52.120;5.252;2022-10-29T06:25:57;150.27;;;105.03;;
17133;SDS011;8682;52.120;5.252;2022-10-29T06:28:32;153.40;;;109.90;;
17133;SDS011;8682;52.120;5.252;2022-10-29T06:31:08;126.20;;;111.73;;
17133;SDS011;8682;52.120;5.252;2022-10-29T06:34:13;119.47;;;107.47;;
17133;SDS011;8682;52.120;5.252;2022-10-29T06:37:08;134.43;;;109.10;;
17133;SDS011;8682;52.120;5.252;2022-10-29T06:40:02;141.07;;;116.80;;
17133;SDS011;8682;52.120;5.252;2022-10-29T06:42:59;113.07;;;101.03;;
17133;SDS011;8682;52.120;5.252;2022-10-29T06:45:43;126.43;;;113.23;;
17133;SDS011;8682;52.120;5.252;2022-10-29T06:52:04;155.37;;;129.37;;
17133;SDS011;8682;52.120;5.252;2022-10-29T06:54:42;130.30;;;115.93;;
17133;SDS011;8682;52.120;5.252;2022-10-29T06:57:21;145.07;;;112.63;;
17133;SDS011;8682;52.120;5.252;2022-10-29T07:02:45;140.43;;;117.43;;
17133;SDS011;8682;52.120;5.252;2022-10-29T07:05:21;122.53;;;107.47;;
17133;SDS011;8682;52.120;5.252;2022-10-29T07:07:53;136.73;;;105.57;;
17133;SDS011;8682;52.120;5.252;2022-10-29T07:10:26;124.63;;;103.70;;
17133;SDS011;8682;52.120;5.252;2022-10-29T07:13:02;124.80;;;112.23;;
17133;SDS011;8682;52.120;5.252;2022-10-29T07:15:31;125.53;;;109.77;;
17133;SDS011;8682;52.120;5.252;2022-10-29T07:21:01;140.07;;;104.23;;
17133;SDS011;8682;52.120;5.252;2022-10-29T07:23:30;120.03;;;105.90;;
17133;SDS011;8682;52.120;5.252;2022-10-29T07:25:57;125.93;;;106.23;;
17133;SDS011;8682;52.120;5.252;2022-10-29T07:28:30;122.03;;;107.80;;
17133;SDS011;8682;52.120;5.252;2022-10-29T07:31:01;128.27;;;109.77;;
17133;SDS011;8682;52.120;5.252;2022-10-29T07:33:32;118.07;;;103.27;;
17133;SDS011;8682;52.120;5.252;2022-10-29T07:36:04;125.40;;;112.03;;
17133;SDS011;8682;52.120;5.252;2022-10-29T07:38:33;124.77;;;112.80;;
17133;SDS011;8682;52.120;5.252;2022-10-29T07:41:09;123.07;;;109.83;;
17133;SDS011;8682;52.120;5.252;2022-10-29T07:43:54;129.17;;;115.83;;
17133;SDS011;8682;52.120;5.252;2022-10-29T07:46:23;131.83;;;117.97;;
17133;SDS011;8682;52.120;5.252;2022-10-29T07:48:50;136.17;;;122.17;;
17133;SDS011;8682;52.120;5.252;2022-10-29T07:51:22;139.40;;;125.90;;
17133;SDS011;8682;52.120;5.252;2022-10-29T07:53:54;140.80;;;126.97;;
17133;SDS011;8682;52.120;5.252;2022-10-29T07:56:34;149.53;;;134.10;;
17133;SDS011;8682;52.120;5.252;2022-10-29T07:59:03;132.77;;;120.30;;
17133;SDS011;8682;52.120;5.252;2022-10-29T08:01:32;164.67;;;149.27;;
17133;SDS011;8682;52.120;5.252;2022-10-29T08:04:00;164.93;;;150.53;;
17133;SDS011;8682;52.120;5.252;2022-10-29T08:06:28;160.07;;;145.90;;
17133;SDS011;8682;52.120;5.252;2022-10-29T08:08:56;157.60;;;141.83;;
17133;SDS011;8682;52.120;5.252;2022-10-29T08:11:24;161.70;;;146.53;;
17133;SDS011;8682;52.120;5.252;2022-10-29T08:13:53;165.03;;;149.60;;
17133;SDS011;8682;52.120;5.252;2022-10-29T08:16:25;168.80;;;153.47;;
17133;SDS011;8682;52.120;5.252;2022-10-29T08:18:52;160.10;;;146.17;;
17133;SDS011;8682;52.120;5.252;2022-10-29T08:21:23;156.93;;;142.03;;
17133;SDS011;8682;52.120;5.252;2022-10-29T08:23:50;161.87;;;146.50;;
17133;SDS011;8682;52.120;5.252;2022-10-29T08:26:21;156.10;;;142.27;;
17133;SDS011;8682;52.120;5.252;2022-10-29T08:28:48;168.23;;;153.90;;
17133;SDS011;8682;52.120;5.252;2022-10-29T08:31:16;166.93;;;152.33;;
17133;SDS011;8682;52.120;5.252;2022-10-29T08:33:47;156.53;;;142.47;;
17133;SDS011;8682;52.120;5.252;2022-10-29T08:36:16;174.17;;;157.93;;
17133;SDS011;8682;52.120;5.252;2022-10-29T08:38:52;160.70;;;145.20;;
17133;SDS011;8682;52.120;5.252;2022-10-29T08:41:26;160.23;;;145.27;;
17133;SDS011;8682;52.120;5.252;2022-10-29T08:44:06;157.90;;;144.27;;
17133;SDS011;8682;52.120;5.252;2022-10-29T08:46:39;148.20;;;134.17;;
17133;SDS011;8682;52.120;5.252;2022-10-29T08:49:14;151.43;;;136.53;;
17133;SDS011;8682;52.120;5.252;2022-10-29T08:51:43;137.03;;;122.93;;
17133;SDS011;8682;52.120;5.252;2022-10-29T08:54:13;135.93;;;121.87;;
17133;SDS011;8682;52.120;5.252;2022-10-29T08:56:42;133.70;;;117.07;;
17133;SDS011;8682;52.120;5.252;2022-10-29T08:59:26;135.57;;;114.53;;
17133;SDS011;8682;52.120;5.252;2022-10-29T09:02:00;127.43;;;108.93;;
17133;SDS011;8682;52.120;5.252;2022-10-29T09:07:19;137.13;;;116.10;;
17133;SDS011;8682;52.120;5.252;2022-10-29T09:09:51;138.83;;;112.13;;
17133;SDS011;8682;52.120;5.252;2022-10-29T09:12:28;128.00;;;106.40;;
17133;SDS011;8682;52.120;5.252;2022-10-29T09:17:44;148.00;;;117.30;;
17133;SDS011;8682;52.120;5.252;2022-10-29T09:20:20;137.00;;;114.07;;
17133;SDS011;8682;52.120;5.252;2022-10-29T09:22:52;145.40;;;112.03;;
17133;SDS011;8682;52.120;5.252;2022-10-29T09:25:21;155.17;;;122.47;;
17133;SDS011;8682;52.120;5.252;2022-10-29T09:27:54;129.47;;;113.07;;
17133;SDS011;8682;52.120;5.252;2022-10-29T09:30:25;155.97;;;122.90;;
17133;SDS011;8682;52.120;5.252;2022-10-29T09:32:55;129.37;;;104.87;;
17133;SDS011;8682;52.120;5.252;2022-10-29T09:35:37;418.10;;;379.90;;
17133;SDS011;8682;52.120;5.252;2022-10-29T09:38:11;303.37;;;279.50;;
17133;SDS011;8682;52.120;5.252;2022-10-29T09:40:40;137.50;;;121.70;;
17133;SDS011;8682;52.120;5.252;2022-10-29T09:43:13;317.60;;;291.27;;
17133;SDS011;8682;52.120;5.252;2022-10-29T09:45:43;206.33;;;188.17;;
17133;SDS011;8682;52.120;5.252;2022-10-29T09:48:14;155.67;;;128.80;;
17133;SDS011;8682;52.120;5.252;2022-10-29T09:50:45;146.00;;;113.70;;
17133;SDS011;8682;52.120;5.252;2022-10-29T09:53:17;134.30;;;110.50;;
17133;SDS011;8682;52.120;5.252;2022-10-29T09:55:44;141.00;;;112.43;;
17133;SDS011;8682;52.120;5.252;2022-10-29T09:58:18;142.80;;;108.33;;
17133;SDS011;8682;52.120;5.252;2022-10-29T10:00:45;133.17;;;100.57;;
17133;SDS011;8682;52.120;5.252;2022-10-29T10:03:13;134.03;;;101.77;;
17133;SDS011;8682;52.120;5.252;2022-10-29T10:05:55;125.03;;;104.93;;
17133;SDS011;8682;52.120;5.252;2022-10-29T10:08:24;119.27;;;105.57;;
17133;SDS011;8682;52.120;5.252;2022-10-29T10:10:52;143.87;;;107.57;;
17133;SDS011;8682;52.120;5.252;2022-10-29T10:13:19;135.73;;;104.87;;
17133;SDS011;8682;52.120;5.252;2022-10-29T10:15:49;131.70;;;101.83;;
17133;SDS011;8682;52.120;5.252;2022-10-29T10:18:17;135.30;;;106.67;;
17133;SDS011;8682;52.120;5.252;2022-10-29T10:20:46;139.27;;;104.77;;
17133;SDS011;8682;52.120;5.252;2022-10-29T10:23:26;106.97;;;93.25;;
17133;SDS011;8682;52.120;5.252;2022-10-29T10:25:57;150.67;;;107.83;;
17133;SDS011;8682;52.120;5.252;2022-10-29T10:28:27;150.33;;;109.10;;
17133;SDS011;8682;52.120;5.252;2022-10-29T10:31:12;153.00;;;109.07;;
17133;SDS011;8682;52.120;5.252;2022-10-29T10:33:43;139.73;;;102.90;;
17133;SDS011;8682;52.120;5.252;2022-10-29T10:36:17;144.03;;;114.53;;
17133;SDS011;8682;52.120;5.252;2022-10-29T10:38:45;174.07;;;118.43;;
17133;SDS011;8682;52.120;5.252;2022-10-29T10:43:57;199.87;;;109.63;;
17133;SDS011;8682;52.120;5.252;2022-10-29T10:46:28;200.10;;;132.57;;
17133;SDS011;8682;52.120;5.252;2022-10-29T10:48:59;204.07;;;130.87;;
17133;SDS011;8682;52.120;5.252;2022-10-29T10:51:29;185.90;;;132.50;;
17133;SDS011;8682;52.120;5.252;2022-10-29T10:54:00;196.97;;;134.83;;
17133;SDS011;8682;52.120;5.252;2022-10-29T10:56:31;201.73;;;140.37;;
17133;SDS011;8682;52.120;5.252;2022-10-29T10:59:06;217.80;;;161.23;;
17133;SDS011;8682;52.120;5.252;2022-10-29T11:01:43;300.57;;;218.77;;
17133;SDS011;8682;52.120;5.252;2022-10-29T11:04:19;547.85;;;487.42;;
17133;SDS011;8682;52.120;5.252;2022-10-29T11:06:47;720.03;;;641.30;;
17133;SDS011;8682;52.120;5.252;2022-10-29T11:09:18;582.57;;;461.90;;
17133;SDS011;8682;52.120;5.252;2022-10-29T11:11:53;442.73;;;369.63;;
17133;SDS011;8682;52.120;5.252;2022-10-29T11:14:38;451.90;;;340.53;;
17133;SDS011;8682;52.120;5.252;2022-10-29T11:17:17;395.43;;;323.63;;
17133;SDS011;8682;52.120;5.252;2022-10-29T11:19:47;339.80;;;231.97;;
17133;SDS011;8682;52.120;5.252;2022-10-29T11:22:17;271.20;;;197.68;;
17133;SDS011;8682;52.120;5.252;2022-10-29T11:24:49;213.27;;;170.00;;
17133;SDS011;8682;52.120;5.252;2022-10-29T11:27:20;252.98;;;190.50;;
17133;SDS011;8682;52.120;5.252;2022-10-29T11:29:52;292.87;;;200.33;;
17133;SDS011;8682;52.120;5.252;2022-10-29T11:32:27;269.13;;;206.73;;
17133;SDS011;8682;52.120;5.252;2022-10-29T11:35:01;280.63;;;202.53;;
17133;SDS011;8682;52.120;5.252;2022-10-29T11:37:31;214.80;;;149.43;;
17133;SDS011;8682;52.120;5.252;2022-10-29T11:40:00;242.43;;;161.97;;
17133;SDS011;8682;52.120;5.252;2022-10-29T11:42:28;244.07;;;166.83;;
17133;SDS011;8682;52.120;5.252;2022-10-29T11:44:58;220.80;;;182.07;;
17133;SDS011;8682;52.120;5.252;2022-10-29T11:47:29;256.03;;;181.33;;
17133;SDS011;8682;52.120;5.252;2022-10-29T11:50:04;315.83;;;271.07;;
17133;SDS011;8682;52.120;5.252;2022-10-29T11:52:34;481.25;;;386.45;;
17133;SDS011;8682;52.120;5.252;2022-10-29T11:55:09;590.13;;;483.90;;
17133;SDS011;8682;52.120;5.252;2022-10-29T11:57:43;1044.18;;;686.00;;
17133;SDS011;8682;52.120;5.252;2022-10-29T12:00:15;1352.03;;;801.00;;
17133;SDS011;8682;52.120;5.252;2022-10-29T12:02:48;1349.90;;;870.03;;
17133;SDS011;8682;52.120;5.252;2022-10-29T12:05:21;1999.90;;;999.90;;
17133;SDS011;8682;52.120;5.252;2022-10-29T12:07:56;1999.90;;;999.90;;
17133;SDS011;8682;52.120;5.252;2022-10-29T12:10:33;1999.90;;;999.90;;
17133;SDS011;8682;52.120;5.252;2022-10-29T12:13:04;1999.90;;;999.90;;
17133;SDS011;8682;52.120;5.252;2022-10-29T12:15:37;1999.90;;;999.90;;
17133;SDS011;8682;52.120;5.252;2022-10-29T12:18:09;1999.90;;;999.90;;
17133;SDS011;8682;52.120;5.252;2022-10-29T12:20:41;1999.90;;;999.90;;
17133;SDS011;8682;52.120;5.252;2022-10-29T12:23:15;1999.90;;;999.90;;
17133;SDS011;8682;52.120;5.252;2022-10-29T12:25:51;1999.90;;;999.90;;
17133;SDS011;8682;52.120;5.252;2022-10-29T12:28:20;1999.90;;;999.90;;
17133;SDS011;8682;52.120;5.252;2022-10-29T12:31:02;1999.90;;;999.90;;
17133;SDS011;8682;52.120;5.252;2022-10-29T12:33:33;1999.90;;;432.48;;
17133;SDS011;8682;52.120;5.252;2022-10-29T12:36:04;1999.90;;;801.53;;
17133;SDS011;8682;52.120;5.252;2022-10-29T12:38:35;1999.90;;;999.90;;
17133;SDS011;8682;52.120;5.252;2022-10-29T12:41:04;1999.90;;;999.90;;
17133;SDS011;8682;52.120;5.252;2022-10-29T12:43:32;1999.90;;;859.30;;
17133;SDS011;8682;52.120;5.252;2022-10-29T12:46:04;1999.90;;;883.97;;
17133;SDS011;8682;52.120;5.252;2022-10-29T12:48:36;1999.90;;;734.55;;
17133;SDS011;8682;52.120;5.252;2022-10-29T12:51:07;1999.90;;;997.75;;
17133;SDS011;8682;52.120;5.252;2022-10-29T12:53:37;1999.90;;;999.90;;
17133;SDS011;8682;52.120;5.252;2022-10-29T12:56:08;1999.90;;;931.03;;
17133;SDS011;8682;52.120;5.252;2022-10-29T12:58:44;1918.90;;;873.97;;
17133;SDS011;8682;52.120;5.252;2022-10-29T13:04:03;1366.78;;;707.80;;
17133;SDS011;8682;52.120;5.252;2022-10-29T13:06:43;793.63;;;474.75;;
17133;SDS011;8682;52.120;5.252;2022-10-29T13:09:15;524.17;;;317.27;;
17133;SDS011;8682;52.120;5.252;2022-10-29T13:11:44;442.67;;;333.70;;
17133;SDS011;8682;52.120;5.252;2022-10-29T13:14:15;412.88;;;241.32;;
17133;SDS011;8682;52.120;5.252;2022-10-29T13:16:43;279.83;;;207.75;;
17133;SDS011;8682;52.120;5.252;2022-10-29T13:19:20;268.27;;;180.25;;
17133;SDS011;8682;52.120;5.252;2022-10-29T13:22:30;241.00;;;152.60;;
17133;SDS011;8682;52.120;5.252;2022-10-29T13:27:43;198.55;;;134.82;;
17133;SDS011;8682;52.120;5.252;2022-10-29T13:30:16;224.48;;;134.45;;
17133;SDS011;8682;52.120;5.252;2022-10-29T13:32:44;218.02;;;134.30;;
17133;SDS011;8682;52.120;5.252;2022-10-29T13:38:15;197.38;;;126.43;;
17133;SDS011;8682;52.120;5.252;2022-10-29T13:43:24;219.15;;;126.10;;
17133;SDS011;8682;52.120;5.252;2022-10-29T13:45:58;168.93;;;118.35;;
17133;SDS011;8682;52.120;5.252;2022-10-29T13:48:27;207.77;;;137.55;;
17133;SDS011;8682;52.120;5.252;2022-10-29T13:50:56;178.07;;;109.10;;
17133;SDS011;8682;52.120;5.252;2022-10-29T13:53:27;164.60;;;107.63;;
17133;SDS011;8682;52.120;5.252;2022-10-29T13:55:57;174.90;;;118.90;;
17133;SDS011;8682;52.120;5.252;2022-10-29T13:58:26;190.95;;;114.82;;
17133;SDS011;8682;52.120;5.252;2022-10-29T14:00:54;149.38;;;114.25;;
17133;SDS011;8682;52.120;5.252;2022-10-29T14:03:25;143.45;;;118.40;;
17133;SDS011;8682;52.120;5.252;2022-10-29T14:05:55;168.10;;;103.40;;
17133;SDS011;8682;52.120;5.252;2022-10-29T14:08:25;141.90;;;124.82;;
17133;SDS011;8682;52.120;5.252;2022-10-29T14:10:56;114.95;;;96.80;;
17133;SDS011;8682;52.120;5.252;2022-10-29T14:13:25;136.88;;;117.95;;
17133;SDS011;8682;52.120;5.252;2022-10-29T14:16:00;157.57;;;106.93;;
17133;SDS011;8682;52.120;5.252;2022-10-29T14:18:29;137.45;;;117.00;;
17133;SDS011;8682;52.120;5.252;2022-10-29T14:20:57;134.07;;;108.68;;
17133;SDS011;8682;52.120;5.252;2022-10-29T14:23:26;152.60;;;118.07;;
17133;SDS011;8682;52.120;5.252;2022-10-29T14:25:54;120.45;;;93.88;;
17133;SDS011;8682;52.120;5.252;2022-10-29T14:28:23;122.15;;;104.53;;
17133;SDS011;8682;52.120;5.252;2022-10-29T14:31:03;119.35;;;105.05;;
17133;SDS011;8682;52.120;5.252;2022-10-29T14:33:31;122.00;;;105.05;;
17133;SDS011;8682;52.120;5.252;2022-10-29T14:36:11;109.90;;;97.97;;
17133;SDS011;8682;52.120;5.252;2022-10-29T14:38:42;117.50;;;102.32;;
17133;SDS011;8682;52.120;5.252;2022-10-29T14:41:15;117.07;;;100.65;;
17133;SDS011;8682;52.120;5.252;2022-10-29T14:43:54;112.85;;;97.00;;
17133;SDS011;8682;52.120;5.252;2022-10-29T14:49:22;110.40;;;98.15;;
17133;SDS011;8682;52.120;5.252;2022-10-29T14:51:50;117.72;;;103.00;;
17133;SDS011;8682;52.120;5.252;2022-10-29T14:54:20;104.65;;;93.57;;
17133;SDS011;8682;52.120;5.252;2022-10-29T14:56:49;109.88;;;98.13;;
17133;SDS011;8682;52.120;5.252;2022-10-29T14:59:18;121.75;;;101.68;;
17133;SDS011;8682;52.120;5.252;2022-10-29T15:01:48;114.20;;;97.65;;
17133;SDS011;8682;52.120;5.252;2022-10-29T15:04:20;119.18;;;97.65;;
17133;SDS011;8682;52.120;5.252;2022-10-29T15:06:47;121.63;;;107.03;;
17133;SDS011;8682;52.120;5.252;2022-10-29T15:09:15;120.00;;;102.15;;
17133;SDS011;8682;52.120;5.252;2022-10-29T15:12:02;115.77;;;100.43;;
17133;SDS011;8682;52.120;5.252;2022-10-29T15:14:33;195.85;;;185.93;;
17133;SDS011;8682;52.120;5.252;2022-10-29T15:17:06;116.10;;;103.28;;
17133;SDS011;8682;52.120;5.252;2022-10-29T15:19:34;105.25;;;93.28;;
17133;SDS011;8682;52.120;5.252;2022-10-29T15:22:06;117.10;;;100.20;;
17133;SDS011;8682;52.120;5.252;2022-10-29T15:24:33;115.60;;;99.60;;
17133;SDS011;8682;52.120;5.252;2022-10-29T15:27:02;115.18;;;103.03;;
17133;SDS011;8682;52.120;5.252;2022-10-29T15:29:32;113.23;;;100.50;;
17133;SDS011;8682;52.120;5.252;2022-10-29T15:32:04;114.65;;;102.60;;
17133;SDS011;8682;52.120;5.252;2022-10-29T15:34:33;105.63;;;94.80;;
17133;SDS011;8682;52.120;5.252;2022-10-29T15:37:18;120.70;;;104.13;;
17133;SDS011;8682;52.120;5.252;2022-10-29T15:39:59;117.20;;;104.63;;
17133;SDS011;8682;52.120;5.252;2022-10-29T15:42:29;109.10;;;97.50;;
17133;SDS011;8682;52.120;5.252;2022-10-29T15:45:13;116.27;;;104.07;;
17133;SDS011;8682;52.120;5.252;2022-10-29T15:47:41;108.93;;;95.87;;
17133;SDS011;8682;52.120;5.252;2022-10-29T15:50:09;111.17;;;98.73;;
17133;SDS011;8682;52.120;5.252;2022-10-29T15:52:37;113.70;;;100.83;;
17133;SDS011;8682;52.120;5.252;2022-10-29T15:55:08;115.20;;;103.33;;
17133;SDS011;8682;52.120;5.252;2022-10-29T15:57:37;110.20;;;99.10;;
17133;SDS011;8682;52.120;5.252;2022-10-29T16:00:05;121.73;;;102.87;;
17133;SDS011;8682;52.120;5.252;2022-10-29T16:02:33;117.82;;;101.15;;
17133;SDS011;8682;52.120;5.252;2022-10-29T16:05:00;110.97;;;99.37;;
17133;SDS011;8682;52.120;5.252;2022-10-29T16:07:27;106.50;;;95.30;;
17133;SDS011;8682;52.120;5.252;2022-10-29T16:09:54;115.90;;;98.83;;
17133;SDS011;8682;52.120;5.252;2022-10-29T16:12:24;134.87;;;98.07;;
17133;SDS011;8682;52.120;5.252;2022-10-29T16:14:52;118.30;;;98.60;;
17133;SDS011;8682;52.120;5.252;2022-10-29T16:17:19;116.20;;;104.57;;
17133;SDS011;8682;52.120;5.252;2022-10-29T16:19:46;119.87;;;93.73;;
17133;SDS011;8682;52.120;5.252;2022-10-29T16:22:15;116.97;;;103.60;;
17133;SDS011;8682;52.120;5.252;2022-10-29T16:24:42;113.40;;;100.33;;
17133;SDS011;8682;52.120;5.252;2022-10-29T16:27:10;118.97;;;106.20;;
17133;SDS011;8682;52.120;5.252;2022-10-29T16:29:39;164.73;;;129.20;;
17133;SDS011;8682;52.120;5.252;2022-10-29T16:32:08;122.87;;;110.10;;
17133;SDS011;8682;52.120;5.252;2022-10-29T16:34:35;175.40;;;138.03;;
17133;SDS011;8682;52.120;5.252;2022-10-29T16:37:02;122.73;;;103.73;;
17133;SDS011;8682;52.120;5.252;2022-10-29T16:39:29;127.50;;;107.90;;
17133;SDS011;8682;52.120;5.252;2022-10-29T16:41:56;144.97;;;123.70;;
17133;SDS011;8682;52.120;5.252;2022-10-29T16:44:23;129.20;;;105.77;;
17133;SDS011;8682;52.120;5.252;2022-10-29T16:46:50;142.83;;;115.33;;
17133;SDS011;8682;52.120;5.252;2022-10-29T16:49:19;135.70;;;112.00;;
17133;SDS011;8682;52.120;5.252;2022-10-29T16:51:47;135.07;;;121.00;;
17133;SDS011;8682;52.120;5.252;2022-10-29T16:54:15;133.43;;;118.67;;
17133;SDS011;8682;52.120;5.252;2022-10-29T16:56:42;123.83;;;108.47;;
17133;SDS011;8682;52.120;5.252;2022-10-29T16:59:24;115.40;;;101.80;;
17133;SDS011;8682;52.120;5.252;2022-10-29T17:01:51;120.90;;;99.60;;
17133;SDS011;8682;52.120;5.252;2022-10-29T17:04:25;117.53;;;100.57;;
17133;SDS011;8682;52.120;5.252;2022-10-29T17:06:52;128.20;;;105.37;;
17133;SDS011;8682;52.120;5.252;2022-10-29T17:09:21;116.50;;;104.23;;
17133;SDS011;8682;52.120;5.252;2022-10-29T17:11:51;120.27;;;105.77;;
17133;SDS011;8682;52.120;5.252;2022-10-29T17:14:22;140.50;;;111.90;;
17133;SDS011;8682;52.120;5.252;2022-10-29T17:16:49;123.27;;;102.17;;
17133;SDS011;8682;52.120;5.252;2022-10-29T17:19:21;138.80;;;120.20;;
17133;SDS011;8682;52.120;5.252;2022-10-29T17:21:53;140.57;;;106.97;;
17133;SDS011;8682;52.120;5.252;2022-10-29T17:24:22;163.37;;;97.40;;
17133;SDS011;8682;52.120;5.252;2022-10-29T17:26:51;129.87;;;105.63;;
17133;SDS011;8682;52.120;5.252;2022-10-29T17:29:24;179.37;;;107.70;;
17133;SDS011;8682;52.120;5.252;2022-10-29T17:31:52;118.70;;;105.87;;
17133;SDS011;8682;52.120;5.252;2022-10-29T17:34:25;132.17;;;112.33;;
17133;SDS011;8682;52.120;5.252;2022-10-29T17:36:53;142.00;;;106.63;;